Terminal Aerodrome Forecast
Issued by NWS Memphis, TN

Current Version | Previous Version | Text Only | Print | Product List | Glossary On
Versions: 1 2 3 4 5 6 7 8 9 10 11 12 13 14 15
000
FTUS44 KMEG 270734 AAA
TAFJBR
TAF AMD
KJBR 270734Z 2708/2806 20005KT P6SM VCSH BKN010 OVC014
     FM270900 18008KT 4SM -RA OVC010
     FM272300 36009KT 3SM -RA OVC005=

USA.gov is the U.S. government's official web portal to all federal, state and local government web resources and services.